createdAt,value
2023-05-10T00:00:00.647Z,4.05
2023-05-10T00:00:32.303Z,4.30
2023-05-10T00:01:03.906Z,4.93
2023-05-10T00:01:35.496Z,7.22
2023-05-10T00:02:07.165Z,4.38
2023-05-10T00:02:39.221Z,4.40
2023-05-10T00:03:11.019Z,3.92
2023-05-10T00:03:43.081Z,4.90
2023-05-10T00:04:14.969Z,4.72
2023-05-10T00:04:46.638Z,4.47
2023-05-10T00:05:18.232Z,4.10
2023-05-10T00:05:49.809Z,4.90
2023-05-10T00:06:21.463Z,5.05
2023-05-10T00:06:53.053Z,4.53
2023-05-10T00:07:24.653Z,5.28
2023-05-10T00:07:56.211Z,5.93
2023-05-10T00:08:27.786Z,6.43
2023-05-10T00:08:59.368Z,4.88
2023-05-10T00:09:30.976Z,6.13
2023-05-10T00:10:02.710Z,3.97
2023-05-10T00:10:34.316Z,5.30
2023-05-10T00:11:05.989Z,3.53
2023-05-10T00:11:37.527Z,4.63
2023-05-10T00:12:09.074Z,4.97
2023-05-10T00:12:40.646Z,5.68
2023-05-10T00:13:12.242Z,4.03
2023-05-10T00:13:44.702Z,4.68
2023-05-10T00:14:16.519Z,5.85
2023-05-10T00:14:48.050Z,4.57
2023-05-10T00:15:19.584Z,4.38
2023-05-10T00:15:51.612Z,4.28
2023-05-10T00:16:23.286Z,5.80
2023-05-10T00:16:54.936Z,5.07
2023-05-10T00:17:26.624Z,8.40
2023-05-10T00:17:58.307Z,4.90
2023-05-10T00:18:29.911Z,7.90
2023-05-10T00:19:01.508Z,7.82
2023-05-10T00:19:33.065Z,8.15
2023-05-10T00:20:05.981Z,5.05
2023-05-10T00:20:37.586Z,6.15
2023-05-10T00:21:09.144Z,7.15
2023-05-10T00:21:40.719Z,5.00
2023-05-10T00:22:12.343Z,5.20
2023-05-10T00:22:43.917Z,5.65
2023-05-10T00:23:15.800Z,4.88
2023-05-10T00:23:47.325Z,5.15
2023-05-10T00:24:18.828Z,5.57
2023-05-10T00:24:50.352Z,5.38
2023-05-10T00:25:40.220Z,5.90
2023-05-10T00:26:11.829Z,4.72
2023-05-10T00:26:43.833Z,5.72
2023-05-10T00:27:15.532Z,6.50
2023-05-10T00:27:47.162Z,6.72
2023-05-10T00:28:18.756Z,5.05
2023-05-10T00:28:50.577Z,5.60
2023-05-10T00:29:23.312Z,5.88
2023-05-10T00:29:54.830Z,5.78
2023-05-10T00:30:26.428Z,7.45
2023-05-10T00:30:58.072Z,7.25
2023-05-10T00:31:29.733Z,5.88
2023-05-10T00:32:03.018Z,5.10
2023-05-10T00:32:34.622Z,6.95
2023-05-10T00:33:06.306Z,6.40
2023-05-10T00:33:37.965Z,4.80
2023-05-10T00:34:09.544Z,6.30
2023-05-10T00:34:41.580Z,6.40
2023-05-10T00:35:13.261Z,8.93
2023-05-10T00:35:44.879Z,6.82
2023-05-10T00:36:16.508Z,5.45
2023-05-10T00:36:48.299Z,6.97
2023-05-10T00:37:19.900Z,7.28
2023-05-10T00:37:51.503Z,7.57
2023-05-10T00:38:23.033Z,8.48
2023-05-10T00:38:54.591Z,8.20
2023-05-10T00:39:27.501Z,6.25
2023-05-10T00:39:59.080Z,6.93
2023-05-10T00:40:31.560Z,6.63
2023-05-10T00:41:07.807Z,7.50
2023-05-10T00:41:40.862Z,6.20
2023-05-10T00:42:12.882Z,6.82
2023-05-10T00:42:44.444Z,6.10
2023-05-10T00:43:16.007Z,9.30
2023-05-10T00:43:47.599Z,7.30
2023-05-10T00:44:19.558Z,7.10
2023-05-10T00:44:51.181Z,7.45
2023-05-10T00:45:22.722Z,8.05
2023-05-10T00:45:54.731Z,10.43
2023-05-10T00:46:27.141Z,7.65
2023-05-10T00:46:59.270Z,7.80
2023-05-10T00:47:31.150Z,7.47
2023-05-10T00:48:03.646Z,10.00
2023-05-10T00:48:35.571Z,6.80
2023-05-10T00:49:07.376Z,11.07
2023-05-10T00:49:39.093Z,7.40
2023-05-10T00:50:10.962Z,7.75
2023-05-10T00:50:42.606Z,7.97
2023-05-10T00:51:14.603Z,7.20
2023-05-10T00:51:46.191Z,7.78
2023-05-10T00:52:17.769Z,9.13
2023-05-10T00:52:50.262Z,6.90
2023-05-10T00:53:22.499Z,9.35
2023-05-10T00:53:54.214Z,7.47
2023-05-10T00:54:25.805Z,7.43
2023-05-10T00:54:57.979Z,7.00
2023-05-10T00:55:29.624Z,7.50
2023-05-10T00:56:01.411Z,8.63
2023-05-10T00:56:33.083Z,6.60
2023-05-10T00:57:05.128Z,7.60
2023-05-10T00:57:36.748Z,7.88
2023-05-10T00:58:08.578Z,8.32
2023-05-10T00:58:43.158Z,7.50
2023-05-10T00:59:15.128Z,10.27
2023-05-10T00:59:47.096Z,8.90
2023-05-10T01:00:19.293Z,7.13
2023-05-10T01:00:51.923Z,9.25
2023-05-10T01:01:24.184Z,12.05
2023-05-10T01:01:56.971Z,8.60
2023-05-10T01:02:28.726Z,6.72
2023-05-10T01:03:02.640Z,8.60
2023-05-10T01:03:34.389Z,7.20
2023-05-10T01:04:06.607Z,7.00
2023-05-10T01:04:38.711Z,8.70
2023-05-10T01:05:10.597Z,7.30
2023-05-10T01:05:42.154Z,8.45
2023-05-10T01:06:14.088Z,7.00
2023-05-10T01:06:45.636Z,7.07
2023-05-10T01:07:17.931Z,7.18
2023-05-10T01:07:49.505Z,8.18
2023-05-10T01:08:21.443Z,9.35
2023-05-10T01:08:53.013Z,8.00
2023-05-10T01:09:27.302Z,7.03
2023-05-10T01:09:59.022Z,8.40
2023-05-10T01:10:31.618Z,6.80
2023-05-10T01:11:03.828Z,8.13
2023-05-10T01:11:39.319Z,7.50
2023-05-10T01:12:10.991Z,11.60
2023-05-10T01:12:46.496Z,7.72
2023-05-10T01:13:31.787Z,7.43
2023-05-10T01:14:03.721Z,8.50
2023-05-10T01:14:37.304Z,7.63
2023-05-10T01:15:09.562Z,7.47
2023-05-10T01:15:41.935Z,8.55
2023-05-10T01:16:14.427Z,8.48
2023-05-10T01:16:48.429Z,7.70
2023-05-10T01:17:21.064Z,9.77
2023-05-10T01:17:53.350Z,9.63
2023-05-10T01:18:25.656Z,8.60
2023-05-10T01:18:57.312Z,7.55
2023-05-10T01:19:30.628Z,8.13
2023-05-10T01:20:03.118Z,8.45
2023-05-10T01:20:41.745Z,8.93
2023-05-10T01:21:19.649Z,7.97
2023-05-10T01:21:57.484Z,8.57
2023-05-10T01:22:51.384Z,11.10
2023-05-10T01:23:45.365Z,9.45
2023-05-10T01:24:28.933Z,7.80
2023-05-10T01:25:02.933Z,7.82
2023-05-10T01:25:49.096Z,7.65
2023-05-10T01:26:21.690Z,6.88
2023-05-10T01:27:08.176Z,9.18
2023-05-10T01:27:51.563Z,8.27
2023-05-10T01:28:43.950Z,9.88
2023-05-10T01:29:30.869Z,7.10
2023-05-10T01:30:27.398Z,7.72
2023-05-10T01:31:24.680Z,8.65
2023-05-10T01:32:08.251Z,9.10
2023-05-10T01:33:07.335Z,10.55
2023-05-10T01:33:57.801Z,9.52
2023-05-10T01:34:36.830Z,8.98
2023-05-10T01:35:22.798Z,9.18
2023-05-10T01:36:03.329Z,10.63
2023-05-10T01:36:41.432Z,8.45
2023-05-10T01:37:17.297Z,9.60
2023-05-10T01:37:57.716Z,7.28
2023-05-10T01:39:03.260Z,7.72
2023-05-10T01:39:45.902Z,7.28
2023-05-10T01:40:32.344Z,10.18
2023-05-10T01:41:26.843Z,8.90
2023-05-10T01:42:10.759Z,9.07
2023-05-10T01:42:49.001Z,10.00
2023-05-10T01:43:29.878Z,9.23
2023-05-10T01:44:30.790Z,10.85
2023-05-10T01:45:19.862Z,8.75
2023-05-10T01:46:13.440Z,10.63
2023-05-10T01:46:52.369Z,9.57
2023-05-10T01:47:43.513Z,13.63
2023-05-10T01:48:15.867Z,9.55
2023-05-10T01:48:53.498Z,12.93
2023-05-10T01:49:28.136Z,10.25
2023-05-10T01:50:05.495Z,9.43
2023-05-10T01:50:39.873Z,11.20
2023-05-10T01:51:12.133Z,11.52
2023-05-10T01:51:48.398Z,9.85
2023-05-10T01:52:23.168Z,8.52
2023-05-10T01:52:56.334Z,11.00
2023-05-10T01:53:28.355Z,14.15
2023-05-10T01:54:03.885Z,14.38
2023-05-10T01:54:36.618Z,12.90
2023-05-10T01:55:10.607Z,11.93
2023-05-10T01:55:50.555Z,9.93
2023-05-10T01:56:25.290Z,10.45
2023-05-10T01:57:00.518Z,10.77
2023-05-10T01:57:37.195Z,11.48
2023-05-10T01:58:11.241Z,10.05
2023-05-10T01:58:46.981Z,12.48
2023-05-10T01:59:20.366Z,12.07
2023-05-10T01:59:52.351Z,11.13
2023-05-10T02:00:24.605Z,12.82
2023-05-10T02:01:00.176Z,11.95
2023-05-10T02:01:32.089Z,15.52
2023-05-10T02:02:05.532Z,10.52
2023-05-10T02:02:39.174Z,11.93
2023-05-10T02:03:12.440Z,36.17
2023-05-10T02:03:44.663Z,11.52
2023-05-10T02:04:18.025Z,14.20
2023-05-10T02:04:52.331Z,14.88
2023-05-10T02:05:24.040Z,12.68
2023-05-10T02:05:56.241Z,12.02
2023-05-10T02:06:28.080Z,19.35
2023-05-10T02:06:59.981Z,14.35
2023-05-10T02:07:33.212Z,14.32
2023-05-10T02:08:07.734Z,11.43
2023-05-10T02:08:39.989Z,14.52
2023-05-10T02:09:12.473Z,11.75
2023-05-10T02:09:48.565Z,10.60
2023-05-10T02:10:20.803Z,18.25
2023-05-10T02:10:55.766Z,13.35
2023-05-10T02:11:28.738Z,13.13
2023-05-10T02:12:03.514Z,13.00
2023-05-10T02:12:39.824Z,14.15
2023-05-10T02:13:12.662Z,16.08
2023-05-10T02:13:44.635Z,14.88
2023-05-10T02:14:16.759Z,18.17
2023-05-10T02:14:48.801Z,14.77
2023-05-10T02:15:25.758Z,13.88
2023-05-10T02:15:58.071Z,17.75
2023-05-10T02:16:32.005Z,21.13
2023-05-10T02:17:06.384Z,15.68
2023-05-10T02:17:38.734Z,16.77
2023-05-10T02:18:11.921Z,14.02
2023-05-10T02:18:43.814Z,14.18
2023-05-10T02:19:15.885Z,15.02
2023-05-10T02:19:48.376Z,15.80
2023-05-10T02:20:20.335Z,18.65
2023-05-10T02:20:53.452Z,15.98
2023-05-10T02:21:25.749Z,17.92
2023-05-10T02:21:58.304Z,14.95
2023-05-10T02:22:30.259Z,15.85
2023-05-10T02:23:02.750Z,15.30
2023-05-10T02:23:36.068Z,15.45
2023-05-10T02:24:08.516Z,17.88
2023-05-10T02:24:41.062Z,17.38
2023-05-10T02:25:14.304Z,23.70
2023-05-10T02:25:46.505Z,21.00
2023-05-10T02:26:19.487Z,22.77
2023-05-10T02:26:52.680Z,15.43
2023-05-10T02:27:25.095Z,18.38
2023-05-10T02:27:58.088Z,19.58
2023-05-10T02:28:30.289Z,22.30
2023-05-10T02:29:04.416Z,20.88
2023-05-10T02:29:36.939Z,24.15
2023-05-10T02:30:09.332Z,21.00
2023-05-10T02:30:41.427Z,21.65
2023-05-10T02:31:13.334Z,19.77
2023-05-10T02:31:45.014Z,20.60
2023-05-10T02:32:17.522Z,20.58
2023-05-10T02:32:50.502Z,24.70
2023-05-10T02:33:23.232Z,20.27
2023-05-10T02:33:55.218Z,21.05
2023-05-10T02:34:27.804Z,19.75
2023-05-10T02:34:59.765Z,18.20
2023-05-10T02:35:32.040Z,16.35
2023-05-10T02:36:04.749Z,19.30
2023-05-10T02:36:36.597Z,20.50
2023-05-10T02:37:10.115Z,17.85
2023-05-10T02:37:42.327Z,20.77
2023-05-10T02:38:14.598Z,21.48
2023-05-10T02:38:47.107Z,22.27
2023-05-10T02:39:20.619Z,24.27
2023-05-10T02:39:53.398Z,22.48
2023-05-10T02:40:26.169Z,21.35
2023-05-10T02:41:00.357Z,20.70
2023-05-10T02:41:33.556Z,25.38
2023-05-10T02:42:06.097Z,22.45
2023-05-10T02:42:38.862Z,22.60
2023-05-10T02:43:13.374Z,21.92
2023-05-10T02:43:45.354Z,26.00
2023-05-10T02:44:19.905Z,25.20
2023-05-10T02:44:55.009Z,24.15
2023-05-10T02:45:29.239Z,23.33
2023-05-10T02:46:00.907Z,29.02
2023-05-10T02:46:32.719Z,25.83
2023-05-10T02:47:05.098Z,26.27
2023-05-10T02:47:36.865Z,28.92
2023-05-10T02:48:08.720Z,28.70
2023-05-10T02:48:40.332Z,28.90
2023-05-10T02:49:12.040Z,24.67
2023-05-10T02:49:43.691Z,24.80
2023-05-10T02:50:16.116Z,26.80
2023-05-10T02:50:52.510Z,28.35
2023-05-10T02:51:26.616Z,29.27
2023-05-10T02:52:02.203Z,28.63
2023-05-10T02:52:41.764Z,28.38
2023-05-10T02:53:17.508Z,25.80
2023-05-10T02:53:50.547Z,32.85
2023-05-10T02:54:28.530Z,25.02
2023-05-10T02:55:02.364Z,26.88
2023-05-10T02:55:37.852Z,32.83
2023-05-10T02:56:15.199Z,38.60
2023-05-10T02:56:52.634Z,27.42
2023-05-10T02:57:28.796Z,28.77
2023-05-10T02:58:02.807Z,32.97
2023-05-10T02:58:34.383Z,29.60
2023-05-10T02:59:06.038Z,33.25
2023-05-10T02:59:38.017Z,29.55
2023-05-10T03:00:09.991Z,26.30
2023-05-10T03:00:41.622Z,28.40
2023-05-10T03:01:13.274Z,32.40
2023-05-10T03:01:44.937Z,34.15
2023-05-10T03:02:16.519Z,35.00
2023-05-10T03:02:48.334Z,33.45
2023-05-10T03:03:20.936Z,28.52
2023-05-10T03:03:54.457Z,29.13
2023-05-10T03:04:26.151Z,32.00
2023-05-10T03:05:00.567Z,31.50
2023-05-10T03:05:32.430Z,30.73
2023-05-10T03:06:06.521Z,34.67
2023-05-10T03:06:38.213Z,34.72
2023-05-10T03:07:10.321Z,28.27
2023-05-10T03:07:42.042Z,29.05
2023-05-10T03:08:13.737Z,30.40
2023-05-10T03:08:46.024Z,52.70
2023-05-10T03:09:18.680Z,31.48
2023-05-10T03:09:50.870Z,34.28
2023-05-10T03:10:28.235Z,30.70
2023-05-10T03:11:09.038Z,32.05
2023-05-10T03:11:58.113Z,34.22
2023-05-10T03:12:56.980Z,27.95
2023-05-10T03:13:28.679Z,34.22
2023-05-10T03:14:11.519Z,30.20
2023-05-10T03:14:57.940Z,31.95
2023-05-10T03:15:34.597Z,34.35
2023-05-10T03:16:16.661Z,37.13
2023-05-10T03:16:57.173Z,30.55
2023-05-10T03:17:57.163Z,30.05
2023-05-10T03:18:39.887Z,30.20
2023-05-10T03:19:19.455Z,29.88
2023-05-10T03:19:59.074Z,35.35
2023-05-10T03:20:36.617Z,34.80
2023-05-10T03:21:10.004Z,32.40
2023-05-10T03:21:45.385Z,32.08
2023-05-10T03:22:25.280Z,30.17
2023-05-10T03:23:02.829Z,31.73
2023-05-10T03:23:42.538Z,33.35
2023-05-10T03:24:16.650Z,35.40
2023-05-10T03:24:50.055Z,31.00
2023-05-10T03:25:23.150Z,32.97
2023-05-10T03:25:56.557Z,33.50
2023-05-10T03:26:29.258Z,28.90
2023-05-10T03:27:09.690Z,36.25
2023-05-10T03:27:43.158Z,36.58
2023-05-10T03:28:18.074Z,31.23
2023-05-10T03:28:50.476Z,31.90
2023-05-10T03:29:22.938Z,32.67
2023-05-10T03:29:55.956Z,33.17
2023-05-10T03:30:27.935Z,33.88
2023-05-10T03:31:00.231Z,32.72
2023-05-10T03:31:32.071Z,32.67
2023-05-10T03:32:04.667Z,36.72
2023-05-10T03:32:37.189Z,35.80
2023-05-10T03:33:09.271Z,36.58
2023-05-10T03:33:51.842Z,35.75
2023-05-10T03:34:31.453Z,38.20
2023-05-10T03:35:09.011Z,38.15
2023-05-10T03:35:41.086Z,34.35
2023-05-10T03:36:12.711Z,49.92
2023-05-10T03:36:44.471Z,37.45
2023-05-10T03:37:16.070Z,37.13
2023-05-10T03:37:48.541Z,39.35
2023-05-10T03:38:20.189Z,44.55
2023-05-10T03:38:51.705Z,40.53
2023-05-10T03:39:23.551Z,40.85
2023-05-10T03:39:59.632Z,40.20
2023-05-10T03:40:32.895Z,36.55
2023-05-10T03:41:04.794Z,33.45
2023-05-10T03:41:36.379Z,42.00
2023-05-10T03:42:08.034Z,43.15
2023-05-10T03:42:39.602Z,35.05
2023-05-10T03:43:11.124Z,41.50
2023-05-10T03:43:42.753Z,42.05
2023-05-10T03:44:14.304Z,38.05
2023-05-10T03:44:46.118Z,41.13
2023-05-10T03:45:17.702Z,39.00
2023-05-10T03:45:49.422Z,37.00
2023-05-10T03:46:21.109Z,36.13
2023-05-10T03:46:52.834Z,44.50
2023-05-10T03:47:24.654Z,45.25
2023-05-10T03:47:56.359Z,43.42
2023-05-10T03:48:27.952Z,41.08
2023-05-10T03:49:00.287Z,38.88
2023-05-10T03:49:31.972Z,40.60
2023-05-10T03:50:04.531Z,47.30
2023-05-10T03:50:36.235Z,46.03
2023-05-10T03:51:08.234Z,48.30
2023-05-10T03:51:39.746Z,41.15
2023-05-10T03:52:11.290Z,42.88
2023-05-10T03:52:42.839Z,45.67
2023-05-10T03:53:14.464Z,41.72
2023-05-10T03:53:46.303Z,42.58
2023-05-10T03:54:17.948Z,48.38
2023-05-10T03:54:49.574Z,46.00
2023-05-10T03:55:21.498Z,46.33
2023-05-10T03:55:53.028Z,44.83
2023-05-10T03:56:24.623Z,47.47
2023-05-10T03:56:56.254Z,43.97
2023-05-10T03:57:28.108Z,44.70
2023-05-10T03:57:59.649Z,48.38
2023-05-10T03:58:31.207Z,52.55
2023-05-10T03:59:08.288Z,47.45
2023-05-10T03:59:39.919Z,39.22
2023-05-10T04:00:12.350Z,44.97
2023-05-10T04:00:46.549Z,51.33
2023-05-10T04:01:19.221Z,46.88
2023-05-10T04:01:51.984Z,49.85
2023-05-10T04:02:23.647Z,49.60
2023-05-10T04:02:55.317Z,48.63
2023-05-10T04:03:28.138Z,49.03
2023-05-10T04:03:59.853Z,49.10
2023-05-10T04:04:31.438Z,49.45
2023-05-10T04:05:03.636Z,48.72
2023-05-10T04:05:35.279Z,47.28
2023-05-10T04:06:09.211Z,49.35
2023-05-10T04:06:40.782Z,54.42
2023-05-10T04:07:12.449Z,57.13
2023-05-10T04:07:45.337Z,47.00
2023-05-10T04:08:17.501Z,48.45
2023-05-10T04:08:49.056Z,53.70
2023-05-10T04:09:20.636Z,55.50
2023-05-10T04:09:52.242Z,51.35
2023-05-10T04:10:23.785Z,55.58
2023-05-10T04:10:55.482Z,49.30
2023-05-10T04:11:27.064Z,50.40
2023-05-10T04:12:00.080Z,67.22
2023-05-10T04:12:31.652Z,56.45
2023-05-10T04:13:03.236Z,52.45
2023-05-10T04:13:34.960Z,51.92
2023-05-10T04:14:06.521Z,53.28
2023-05-10T04:14:38.367Z,47.90
2023-05-10T04:15:10.249Z,51.25
2023-05-10T04:15:42.380Z,53.92
2023-05-10T04:16:14.110Z,46.67
2023-05-10T04:16:45.823Z,50.92
2023-05-10T04:17:17.492Z,57.60
2023-05-10T04:17:51.384Z,52.97
2023-05-10T04:18:22.947Z,53.22
2023-05-10T04:18:54.486Z,58.17
2023-05-10T04:19:30.382Z,58.33
2023-05-10T04:20:02.084Z,51.22
2023-05-10T04:20:34.108Z,55.63
2023-05-10T04:21:05.743Z,54.00
2023-05-10T04:21:37.445Z,56.35
2023-05-10T04:22:09.410Z,59.08
2023-05-10T04:22:40.965Z,59.08
2023-05-10T04:23:12.585Z,58.53
2023-05-10T04:23:44.276Z,60.45
2023-05-10T04:24:15.889Z,56.50
2023-05-10T04:24:47.432Z,56.03
2023-05-10T04:25:19.262Z,54.78
2023-05-10T04:25:50.811Z,55.58
2023-05-10T04:26:23.106Z,53.45
2023-05-10T04:26:57.647Z,53.17
2023-05-10T04:27:29.639Z,56.90
2023-05-10T04:28:01.144Z,53.60
2023-05-10T04:28:33.877Z,58.28
2023-05-10T04:29:05.447Z,54.33
2023-05-10T04:29:36.966Z,59.58
2023-05-10T04:30:09.000Z,53.70
2023-05-10T04:30:41.459Z,62.30
2023-05-10T04:31:13.276Z,64.90
2023-05-10T04:31:44.844Z,57.95
2023-05-10T04:32:18.156Z,64.82
2023-05-10T04:32:49.746Z,62.90
2023-05-10T04:33:21.293Z,56.38
2023-05-10T04:33:53.259Z,56.53
2023-05-10T04:34:24.893Z,60.38
2023-05-10T04:34:56.561Z,62.15
2023-05-10T04:35:29.127Z,60.58
2023-05-10T04:36:01.727Z,53.38
2023-05-10T04:36:37.492Z,54.40
2023-05-10T04:37:09.030Z,56.97
2023-05-10T04:37:40.608Z,65.97
2023-05-10T04:38:12.160Z,61.53
2023-05-10T04:38:43.763Z,55.95
2023-05-10T04:39:15.381Z,71.20
2023-05-10T04:39:46.960Z,55.92
2023-05-10T04:40:18.840Z,60.88
2023-05-10T04:40:50.564Z,57.90
2023-05-10T04:41:22.128Z,71.32
2023-05-10T04:41:54.471Z,62.80
2023-05-10T04:42:26.360Z,57.25
2023-05-10T04:42:57.879Z,62.95
2023-05-10T04:43:29.378Z,60.10
2023-05-10T04:44:00.936Z,66.43
2023-05-10T04:44:33.284Z,61.47
2023-05-10T04:45:05.266Z,66.55
2023-05-10T04:45:36.876Z,59.78
2023-05-10T04:46:08.515Z,56.40
2023-05-10T04:46:40.482Z,58.65
2023-05-10T04:47:14.109Z,55.28
2023-05-10T04:47:45.863Z,63.83
2023-05-10T04:48:17.448Z,60.33
2023-05-10T04:48:49.045Z,57.38
2023-05-10T04:49:20.962Z,56.50
2023-05-10T04:49:52.535Z,65.88
2023-05-10T04:50:24.082Z,61.67
2023-05-10T04:50:56.061Z,59.00
2023-05-10T04:51:27.608Z,61.67
2023-05-10T04:51:59.173Z,56.05
2023-05-10T04:52:30.748Z,55.42
2023-05-10T04:53:02.298Z,65.95
2023-05-10T04:53:34.241Z,71.32
2023-05-10T04:54:06.796Z,56.63
2023-05-10T04:54:38.564Z,60.97
2023-05-10T04:55:11.008Z,63.22
2023-05-10T04:55:42.742Z,61.53
2023-05-10T04:56:14.259Z,51.15
2023-05-10T04:56:45.784Z,57.92
2023-05-10T04:57:17.363Z,62.28
2023-05-10T04:57:49.054Z,63.15
2023-05-10T04:58:20.602Z,59.05
2023-05-10T04:58:52.165Z,61.10
2023-05-10T04:59:23.711Z,56.70
2023-05-10T04:59:55.269Z,61.90
2023-05-10T05:00:26.868Z,56.85
2023-05-10T05:00:58.459Z,65.43
2023-05-10T05:01:30.308Z,59.08
2023-05-10T05:02:02.069Z,59.92
2023-05-10T05:02:33.731Z,55.22
2023-05-10T05:03:05.407Z,59.88
2023-05-10T05:03:37.705Z,59.97
2023-05-10T05:04:09.318Z,67.30
2023-05-10T05:04:40.858Z,59.45
2023-05-10T05:05:13.374Z,57.75
2023-05-10T05:05:45.850Z,56.95
2023-05-10T05:06:17.452Z,55.08
2023-05-10T05:06:49.178Z,56.47
2023-05-10T05:07:21.177Z,57.08
2023-05-10T05:07:52.881Z,51.92
2023-05-10T05:08:25.050Z,56.22
2023-05-10T05:08:56.664Z,57.10
2023-05-10T05:09:28.252Z,61.42
2023-05-10T05:09:59.772Z,55.70
2023-05-10T05:10:31.408Z,55.50
2023-05-10T05:11:03.030Z,55.45
2023-05-10T05:11:34.583Z,58.17
2023-05-10T05:12:06.422Z,53.42
2023-05-10T05:12:38.063Z,48.17
2023-05-10T05:13:09.698Z,53.75
2023-05-10T05:13:41.223Z,56.58
2023-05-10T05:14:12.807Z,53.30
2023-05-10T05:14:44.413Z,55.10
2023-05-10T05:15:17.623Z,49.63
2023-05-10T05:15:49.302Z,55.30
2023-05-10T05:16:20.964Z,50.60
2023-05-10T05:16:53.411Z,57.50
2023-05-10T05:17:25.000Z,52.63
2023-05-10T05:17:56.647Z,55.50
2023-05-10T05:18:28.221Z,50.75
2023-05-10T05:19:00.832Z,47.55
2023-05-10T05:19:32.667Z,55.13
2023-05-10T05:20:04.864Z,52.38
2023-05-10T05:20:36.487Z,45.50
2023-05-10T05:21:18.053Z,51.30
2023-05-10T05:21:49.657Z,52.20
2023-05-10T05:22:27.940Z,54.58
2023-05-10T05:22:59.631Z,45.88
2023-05-10T05:23:31.189Z,52.67
2023-05-10T05:24:02.845Z,50.75
2023-05-10T05:24:40.464Z,49.40
2023-05-10T05:25:12.790Z,51.17
2023-05-10T05:25:44.401Z,59.72
2023-05-10T05:26:16.163Z,57.58
2023-05-10T05:26:48.183Z,51.08
2023-05-10T05:27:21.892Z,49.72
2023-05-10T05:27:53.458Z,58.55
2023-05-10T05:28:24.977Z,59.65
2023-05-10T05:28:56.673Z,53.90
2023-05-10T05:29:28.274Z,55.03
2023-05-10T05:30:00.074Z,57.83
2023-05-10T05:30:31.627Z,51.83
2023-05-10T05:31:03.190Z,55.53
2023-05-10T05:31:34.772Z,53.35
2023-05-10T05:32:06.530Z,51.45
2023-05-10T05:32:38.143Z,53.63
2023-05-10T05:33:09.831Z,56.47
2023-05-10T05:33:41.359Z,53.38
2023-05-10T05:34:12.987Z,50.40
2023-05-10T05:34:47.514Z,54.50
2023-05-10T05:35:19.213Z,58.22
2023-05-10T05:35:51.822Z,61.08
2023-05-10T05:36:23.569Z,54.58
2023-05-10T05:36:55.189Z,50.85
2023-05-10T05:37:26.802Z,53.13
2023-05-10T05:37:58.320Z,47.55
2023-05-10T05:38:29.941Z,58.03
2023-05-10T05:39:01.469Z,58.92
2023-05-10T05:39:33.015Z,57.45
2023-05-10T05:40:05.089Z,56.97
2023-05-10T05:40:36.700Z,56.15
2023-05-10T05:41:08.286Z,58.63
2023-05-10T05:41:40.089Z,64.80
2023-05-10T05:42:12.724Z,57.85
2023-05-10T05:42:44.272Z,59.00
2023-05-10T05:43:15.852Z,57.08
2023-05-10T05:43:47.358Z,49.22
2023-05-10T05:44:18.932Z,60.33
2023-05-10T05:44:50.628Z,58.97
2023-05-10T05:45:22.179Z,58.22
2023-05-10T05:45:59.103Z,60.15
2023-05-10T05:46:30.852Z,58.58
2023-05-10T05:47:02.821Z,61.78
2023-05-10T05:47:34.380Z,65.82
2023-05-10T05:48:06.263Z,63.80
2023-05-10T05:48:37.877Z,57.20
2023-05-10T05:49:09.471Z,67.72
2023-05-10T05:49:41.247Z,64.40
2023-05-10T05:50:12.927Z,60.83
2023-05-10T05:50:44.485Z,67.57
2023-05-10T05:51:16.007Z,60.53
2023-05-10T05:51:47.773Z,66.70
2023-05-10T05:52:19.335Z,61.08
2023-05-10T05:52:50.917Z,58.42
2023-05-10T05:53:22.586Z,62.67
2023-05-10T05:53:54.573Z,64.28
2023-05-10T05:54:26.130Z,63.30
2023-05-10T05:54:57.704Z,61.00
2023-05-10T05:55:30.536Z,68.13
2023-05-10T05:56:02.715Z,67.75
2023-05-10T05:56:34.339Z,71.10
2023-05-10T05:57:05.915Z,68.05
2023-05-10T05:57:37.625Z,70.82
2023-05-10T05:58:09.555Z,73.60
2023-05-10T05:58:41.117Z,67.13
2023-05-10T05:59:12.757Z,67.20
2023-05-10T05:59:44.978Z,66.50
2023-05-10T06:00:17.153Z,64.50
2023-05-10T06:00:50.320Z,62.10
2023-05-10T06:01:22.113Z,69.82
2023-05-10T06:01:53.957Z,61.35
2023-05-10T06:02:25.643Z,63.15
2023-05-10T06:02:57.437Z,57.55
2023-05-10T06:03:29.070Z,68.75
2023-05-10T06:04:00.887Z,64.53
2023-05-10T06:04:32.754Z,64.75
2023-05-10T06:05:04.548Z,63.15
2023-05-10T06:05:36.459Z,63.83
2023-05-10T06:06:08.127Z,64.30
2023-05-10T06:06:39.662Z,63.75
2023-05-10T06:07:11.238Z,67.32
2023-05-10T06:07:45.440Z,59.47
2023-05-10T06:08:16.989Z,63.40
2023-05-10T06:08:48.533Z,58.92
2023-05-10T06:09:20.099Z,65.90
2023-05-10T06:09:51.711Z,62.15
2023-05-10T06:10:23.770Z,57.92
2023-05-10T06:10:55.336Z,60.13
2023-05-10T06:11:27.208Z,57.28
2023-05-10T06:11:58.770Z,63.13
2023-05-10T06:12:30.551Z,65.75
2023-05-10T06:13:02.103Z,58.13
2023-05-10T06:13:34.309Z,62.20
2023-05-10T06:14:08.029Z,67.47
2023-05-10T06:14:39.571Z,56.88
2023-05-10T06:15:11.566Z,56.65
2023-05-10T06:15:43.102Z,64.25
2023-05-10T06:16:14.714Z,64.05
2023-05-10T06:16:46.298Z,58.85
2023-05-10T06:17:17.869Z,63.83
2023-05-10T06:17:50.378Z,55.25
2023-05-10T06:18:21.923Z,60.92
2023-05-10T06:18:53.557Z,66.05
2023-05-10T06:19:25.078Z,67.50
2023-05-10T06:19:57.216Z,57.92
2023-05-10T06:20:28.841Z,64.82
2023-05-10T06:21:00.797Z,62.80
2023-05-10T06:21:32.470Z,55.20
2023-05-10T06:22:04.004Z,65.00
2023-05-10T06:22:35.619Z,64.65
2023-05-10T06:23:07.211Z,62.85
2023-05-10T06:23:38.883Z,67.03
2023-05-10T06:24:10.420Z,58.30
2023-05-10T06:24:42.560Z,55.40
2023-05-10T06:25:15.463Z,55.88
2023-05-10T06:25:47.270Z,57.35
2023-05-10T06:26:18.847Z,59.90
2023-05-10T06:26:50.996Z,59.35
2023-05-10T06:27:22.678Z,55.75
2023-05-10T06:27:58.285Z,58.63
2023-05-10T06:28:32.255Z,58.90
2023-05-10T06:29:03.871Z,60.03
2023-05-10T06:29:35.527Z,58.40
2023-05-10T06:30:13.078Z,64.55
2023-05-10T06:30:45.655Z,63.38
2023-05-10T06:31:17.256Z,55.13
2023-05-10T06:31:49.344Z,59.15
2023-05-10T06:32:20.943Z,61.95
2023-05-10T06:32:52.911Z,54.03
2023-05-10T06:33:24.476Z,59.67
2023-05-10T06:33:56.856Z,65.20
2023-05-10T06:34:28.480Z,57.88
2023-05-10T06:35:00.065Z,56.55
2023-05-10T06:35:33.128Z,58.90
2023-05-10T06:36:04.927Z,63.00
2023-05-10T06:36:36.468Z,51.85
2023-05-10T06:37:08.120Z,57.22
2023-05-10T06:37:40.014Z,55.45
2023-05-10T06:38:11.762Z,53.72
2023-05-10T06:38:43.290Z,58.58
2023-05-10T06:39:15.024Z,50.78
2023-05-10T06:39:46.610Z,56.45
2023-05-10T06:40:18.549Z,58.67
2023-05-10T06:40:50.184Z,54.50
2023-05-10T06:41:24.462Z,53.17
2023-05-10T06:41:56.460Z,50.95
2023-05-10T06:42:28.336Z,52.08
2023-05-10T06:42:59.924Z,62.13
2023-05-10T06:43:31.438Z,51.88
2023-05-10T06:44:02.969Z,51.83
2023-05-10T06:44:34.514Z,51.50
2023-05-10T06:45:06.636Z,57.15
2023-05-10T06:45:38.340Z,48.92
2023-05-10T06:46:10.020Z,52.00
2023-05-10T06:46:42.643Z,52.42
2023-05-10T06:47:14.486Z,55.58
2023-05-10T06:47:46.753Z,54.28
2023-05-10T06:48:18.436Z,55.58
2023-05-10T06:48:49.998Z,53.22
2023-05-10T06:49:21.595Z,49.22
2023-05-10T06:49:53.171Z,49.65
2023-05-10T06:50:24.840Z,54.33
2023-05-10T06:50:56.653Z,48.78
2023-05-10T06:51:28.220Z,55.17
2023-05-10T06:51:59.791Z,54.75
2023-05-10T06:52:31.530Z,52.38
2023-05-10T06:53:03.150Z,46.92
2023-05-10T06:53:34.732Z,51.33
2023-05-10T06:54:06.306Z,47.63
2023-05-10T06:54:37.838Z,50.97
2023-05-10T06:55:10.010Z,56.15
2023-05-10T06:55:41.807Z,53.47
2023-05-10T06:56:13.554Z,55.65
2023-05-10T06:56:45.141Z,50.95
2023-05-10T06:57:30.382Z,53.38
2023-05-10T06:58:03.151Z,46.78
2023-05-10T06:58:34.821Z,52.83
2023-05-10T06:59:06.416Z,55.90
2023-05-10T06:59:38.050Z,53.45
2023-05-10T07:00:10.824Z,47.05
2023-05-10T07:00:44.608Z,54.50
2023-05-10T07:01:16.528Z,53.13
2023-05-10T07:01:48.719Z,47.53
2023-05-10T07:02:20.446Z,52.75
2023-05-10T07:02:52.199Z,48.47
2023-05-10T07:03:24.035Z,59.92
2023-05-10T07:03:55.787Z,46.78
2023-05-10T07:04:27.699Z,51.72
2023-05-10T07:05:01.642Z,52.40
2023-05-10T07:05:46.327Z,47.40
2023-05-10T07:06:29.372Z,45.08
2023-05-10T07:07:04.290Z,43.20
2023-05-10T07:07:36.120Z,45.92
2023-05-10T07:08:07.735Z,46.20
2023-05-10T07:08:39.252Z,44.63
2023-05-10T07:09:11.000Z,51.88
2023-05-10T07:09:43.084Z,46.00
2023-05-10T07:10:14.985Z,46.92
2023-05-10T07:10:46.554Z,43.72
2023-05-10T07:11:18.089Z,49.20
2023-05-10T07:11:49.608Z,50.42